sensor_id;sensor_type;location;lat;lon;timestamp;pressure;altitude;pressure_sealevel;temperature;humidity
9225;BME280;4647;48.072;11.616;2023-07-20T00:00:17;95098.22;;;20.59;51.33
9225;BME280;4647;48.072;11.616;2023-07-20T00:02:45;95104.28;;;20.63;51.18
9225;BME280;4647;48.072;11.616;2023-07-20T00:05:14;95085.09;;;20.54;51.37
9225;BME280;4647;48.072;11.616;2023-07-20T00:07:43;95087.38;;;20.56;51.79
9225;BME280;4647;48.072;11.616;2023-07-20T00:10:15;95091.13;;;20.38;52.32
9225;BME280;4647;48.072;11.616;2023-07-20T00:12:43;95093.69;;;20.27;52.80
9225;BME280;4647;48.072;11.616;2023-07-20T00:15:13;95088.41;;;20.08;53.06
9225;BME280;4647;48.072;11.616;2023-07-20T00:17:41;95081.78;;;20.00;54.03
9225;BME280;4647;48.072;11.616;2023-07-20T00:20:11;95084.38;;;19.89;53.87
9225;BME280;4647;48.072;11.616;2023-07-20T00:22:39;95086.81;;;19.87;54.92
9225;BME280;4647;48.072;11.616;2023-07-20T00:25:09;95103.78;;;19.85;54.64
9225;BME280;4647;48.072;11.616;2023-07-20T00:27:40;95076.88;;;19.75;54.55
9225;BME280;4647;48.072;11.616;2023-07-20T00:30:09;95100.94;;;19.80;55.17
9225;BME280;4647;48.072;11.616;2023-07-20T00:32:38;95104.84;;;19.88;55.16
9225;BME280;4647;48.072;11.616;2023-07-20T00:35:07;95103.31;;;19.87;55.30
9225;BME280;4647;48.072;11.616;2023-07-20T00:37:36;95107.88;;;19.90;55.37
9225;BME280;4647;48.072;11.616;2023-07-20T00:40:06;95107.28;;;19.86;55.43
9225;BME280;4647;48.072;11.616;2023-07-20T00:42:35;95105.59;;;19.88;55.15
9225;BME280;4647;48.072;11.616;2023-07-20T00:45:07;95112.91;;;19.91;54.54
9225;BME280;4647;48.072;11.616;2023-07-20T00:47:36;95107.78;;;19.99;54.61
9225;BME280;4647;48.072;11.616;2023-07-20T00:50:05;95094.84;;;20.05;54.52
9225;BME280;4647;48.072;11.616;2023-07-20T00:52:35;95085.56;;;20.03;54.23
9225;BME280;4647;48.072;11.616;2023-07-20T00:55:05;95104.25;;;20.13;54.42
9225;BME280;4647;48.072;11.616;2023-07-20T00:57:35;95105.09;;;20.19;53.78
9225;BME280;4647;48.072;11.616;2023-07-20T01:00:07;95120.84;;;20.19;54.01
9225;BME280;4647;48.072;11.616;2023-07-20T01:02:36;95135.06;;;20.17;54.09
9225;BME280;4647;48.072;11.616;2023-07-20T01:05:06;95125.97;;;20.11;55.61
9225;BME280;4647;48.072;11.616;2023-07-20T01:07:37;95114.50;;;20.13;56.16
9225;BME280;4647;48.072;11.616;2023-07-20T01:10:12;95103.13;;;20.05;56.18
9225;BME280;4647;48.072;11.616;2023-07-20T01:12:43;95114.31;;;20.02;56.37
9225;BME280;4647;48.072;11.616;2023-07-20T01:15:17;95112.78;;;20.01;56.25
9225;BME280;4647;48.072;11.616;2023-07-20T01:17:45;95105.69;;;19.94;56.43
9225;BME280;4647;48.072;11.616;2023-07-20T01:20:15;95096.88;;;19.90;56.36
9225;BME280;4647;48.072;11.616;2023-07-20T01:26:17;95101.44;;;19.93;56.94
9225;BME280;4647;48.072;11.616;2023-07-20T01:31:52;95101.50;;;19.84;56.77
9225;BME280;4647;48.072;11.616;2023-07-20T01:34:22;95100.66;;;19.78;56.80
9225;BME280;4647;48.072;11.616;2023-07-20T01:36:53;95089.94;;;19.80;56.36
9225;BME280;4647;48.072;11.616;2023-07-20T01:39:23;95098.88;;;19.75;56.86
9225;BME280;4647;48.072;11.616;2023-07-20T01:41:52;95101.34;;;19.73;56.93
9225;BME280;4647;48.072;11.616;2023-07-20T01:44:21;95086.91;;;19.63;56.70
9225;BME280;4647;48.072;11.616;2023-07-20T01:46:52;95102.56;;;19.72;57.22
9225;BME280;4647;48.072;11.616;2023-07-20T01:49:21;95110.53;;;19.70;57.19
9225;BME280;4647;48.072;11.616;2023-07-20T01:51:49;95105.78;;;19.70;57.05
9225;BME280;4647;48.072;11.616;2023-07-20T01:54:17;95107.22;;;19.66;57.21
9225;BME280;4647;48.072;11.616;2023-07-20T01:56:46;95114.22;;;19.67;57.07
9225;BME280;4647;48.072;11.616;2023-07-20T01:59:15;95108.13;;;19.62;57.43
9225;BME280;4647;48.072;11.616;2023-07-20T02:01:43;95112.13;;;19.61;57.81
9225;BME280;4647;48.072;11.616;2023-07-20T02:04:14;95106.06;;;19.57;57.59
9225;BME280;4647;48.072;11.616;2023-07-20T02:06:43;95103.41;;;19.63;58.04
9225;BME280;4647;48.072;11.616;2023-07-20T02:09:11;95110.59;;;19.60;58.04
9225;BME280;4647;48.072;11.616;2023-07-20T02:11:40;95117.63;;;19.61;58.02
9225;BME280;4647;48.072;11.616;2023-07-20T02:14:08;95106.06;;;19.57;57.62
9225;BME280;4647;48.072;11.616;2023-07-20T02:16:37;95111.34;;;19.61;58.20
9225;BME280;4647;48.072;11.616;2023-07-20T02:19:05;95105.25;;;19.42;58.42
9225;BME280;4647;48.072;11.616;2023-07-20T02:21:36;95102.63;;;19.48;58.53
9225;BME280;4647;48.072;11.616;2023-07-20T02:24:05;95115.50;;;19.42;58.62
9225;BME280;4647;48.072;11.616;2023-07-20T02:26:33;95117.84;;;19.34;59.18
9225;BME280;4647;48.072;11.616;2023-07-20T02:29:02;95104.97;;;19.40;58.81
9225;BME280;4647;48.072;11.616;2023-07-20T02:31:30;95107.41;;;19.38;58.47
9225;BME280;4647;48.072;11.616;2023-07-20T02:33:59;95108.94;;;19.39;59.05
9225;BME280;4647;48.072;11.616;2023-07-20T02:36:27;95110.75;;;19.42;58.84
9225;BME280;4647;48.072;11.616;2023-07-20T02:39:01;95106.19;;;19.39;58.78
9225;BME280;4647;48.072;11.616;2023-07-20T02:41:30;95104.31;;;19.45;58.92
9225;BME280;4647;48.072;11.616;2023-07-20T02:43:58;95103.00;;;19.41;58.43
9225;BME280;4647;48.072;11.616;2023-07-20T02:46:27;95100.69;;;19.39;58.25
9225;BME280;4647;48.072;11.616;2023-07-20T02:48:56;95107.81;;;19.46;58.27
9225;BME280;4647;48.072;11.616;2023-07-20T02:51:24;95104.84;;;19.35;58.32
9225;BME280;4647;48.072;11.616;2023-07-20T02:53:53;95116.72;;;19.41;57.66
9225;BME280;4647;48.072;11.616;2023-07-20T02:56:24;95114.13;;;19.37;57.55
9225;BME280;4647;48.072;11.616;2023-07-20T02:58:52;95136.41;;;19.39;57.97
9225;BME280;4647;48.072;11.616;2023-07-20T03:01:21;95151.47;;;19.29;58.90
9225;BME280;4647;48.072;11.616;2023-07-20T03:03:49;95163.47;;;19.17;59.27
9225;BME280;4647;48.072;11.616;2023-07-20T03:06:18;95142.69;;;18.92;60.60
9225;BME280;4647;48.072;11.616;2023-07-20T03:08:46;95128.16;;;18.77;62.46
9225;BME280;4647;48.072;11.616;2023-07-20T03:11:18;95138.97;;;18.47;66.46
9225;BME280;4647;48.072;11.616;2023-07-20T03:13:49;95151.94;;;18.04;66.97
9225;BME280;4647;48.072;11.616;2023-07-20T03:16:19;95154.41;;;17.84;67.62
9225;BME280;4647;48.072;11.616;2023-07-20T03:18:48;95140.50;;;17.97;68.16
9225;BME280;4647;48.072;11.616;2023-07-20T03:21:16;95146.19;;;17.84;70.74
9225;BME280;4647;48.072;11.616;2023-07-20T03:23:44;95142.56;;;17.78;71.08
9225;BME280;4647;48.072;11.616;2023-07-20T03:26:13;95146.19;;;17.66;70.91
9225;BME280;4647;48.072;11.616;2023-07-20T03:28:41;95154.72;;;17.49;72.28
9225;BME280;4647;48.072;11.616;2023-07-20T03:31:13;95183.47;;;17.45;72.52
9225;BME280;4647;48.072;11.616;2023-07-20T03:33:42;95173.28;;;17.36;73.42
9225;BME280;4647;48.072;11.616;2023-07-20T03:36:10;95186.34;;;17.23;74.11
9225;BME280;4647;48.072;11.616;2023-07-20T03:38:39;95158.22;;;17.13;76.01
9225;BME280;4647;48.072;11.616;2023-07-20T03:41:07;95176.78;;;17.18;75.78
9225;BME280;4647;48.072;11.616;2023-07-20T03:43:37;95186.03;;;17.03;75.87
9225;BME280;4647;48.072;11.616;2023-07-20T03:46:06;95173.09;;;16.94;75.98
9225;BME280;4647;48.072;11.616;2023-07-20T03:48:37;95178.88;;;16.96;74.25
9225;BME280;4647;48.072;11.616;2023-07-20T03:51:05;95179.63;;;16.97;76.61
9225;BME280;4647;48.072;11.616;2023-07-20T03:53:34;95179.78;;;16.93;76.19
9225;BME280;4647;48.072;11.616;2023-07-20T03:56:03;95153.88;;;16.67;77.03
9225;BME280;4647;48.072;11.616;2023-07-20T03:58:32;95171.88;;;16.86;76.38
9225;BME280;4647;48.072;11.616;2023-07-20T04:01:00;95187.69;;;16.91;76.54
9225;BME280;4647;48.072;11.616;2023-07-20T04:03:28;95183.44;;;16.90;76.77
9225;BME280;4647;48.072;11.616;2023-07-20T04:06:00;95178.88;;;16.87;77.27
9225;BME280;4647;48.072;11.616;2023-07-20T04:08:28;95180.38;;;16.88;76.68
9225;BME280;4647;48.072;11.616;2023-07-20T04:10:56;95178.72;;;16.91;76.58
9225;BME280;4647;48.072;11.616;2023-07-20T04:13:25;95184.03;;;16.85;75.39
9225;BME280;4647;48.072;11.616;2023-07-20T04:15:54;95182.50;;;16.93;76.33
9225;BME280;4647;48.072;11.616;2023-07-20T04:18:23;95176.13;;;16.96;76.27
9225;BME280;4647;48.072;11.616;2023-07-20T04:20:51;95176.16;;;17.14;75.75
9225;BME280;4647;48.072;11.616;2023-07-20T04:23:22;95182.84;;;17.23;75.30
9225;BME280;4647;48.072;11.616;2023-07-20T04:25:51;95173.72;;;17.16;75.99
9225;BME280;4647;48.072;11.616;2023-07-20T04:28:19;95184.69;;;17.26;76.22
9225;BME280;4647;48.072;11.616;2023-07-20T04:30:49;95183.78;;;17.29;76.43
9225;BME280;4647;48.072;11.616;2023-07-20T04:33:18;95189.09;;;17.23;76.02
9225;BME280;4647;48.072;11.616;2023-07-20T04:35:48;95183.78;;;17.19;76.14
9225;BME280;4647;48.072;11.616;2023-07-20T04:38:17;95186.81;;;17.22;77.09
9225;BME280;4647;48.072;11.616;2023-07-20T04:40:50;95183.31;;;17.21;77.00
9225;BME280;4647;48.072;11.616;2023-07-20T04:43:18;95190.63;;;17.24;77.09
9225;BME280;4647;48.072;11.616;2023-07-20T04:45:48;95185.91;;;17.25;77.05
9225;BME280;4647;48.072;11.616;2023-07-20T04:48:17;95187.75;;;17.28;76.58
9225;BME280;4647;48.072;11.616;2023-07-20T04:50:45;95188.81;;;17.39;76.31
9225;BME280;4647;48.072;11.616;2023-07-20T04:53:14;95191.06;;;17.50;75.96
9225;BME280;4647;48.072;11.616;2023-07-20T04:55:50;95191.41;;;17.43;76.04
9225;BME280;4647;48.072;11.616;2023-07-20T04:58:21;95195.97;;;17.37;76.23
9225;BME280;4647;48.072;11.616;2023-07-20T05:00:50;95192.31;;;17.31;76.59
9225;BME280;4647;48.072;11.616;2023-07-20T05:03:19;95204.78;;;17.41;76.83
9225;BME280;4647;48.072;11.616;2023-07-20T05:05:48;95210.25;;;17.41;76.57
9225;BME280;4647;48.072;11.616;2023-07-20T05:08:16;95203.13;;;17.34;77.20
9225;BME280;4647;48.072;11.616;2023-07-20T05:10:45;95207.97;;;17.39;76.29
9225;BME280;4647;48.072;11.616;2023-07-20T05:13:16;95206.31;;;17.42;75.74
9225;BME280;4647;48.072;11.616;2023-07-20T05:15:44;95197.31;;;17.41;74.82
9225;BME280;4647;48.072;11.616;2023-07-20T05:18:13;95202.06;;;17.59;74.14
9225;BME280;4647;48.072;11.616;2023-07-20T05:20:45;95201.63;;;17.79;73.10
9225;BME280;4647;48.072;11.616;2023-07-20T05:23:14;95204.00;;;17.95;72.56
9225;BME280;4647;48.072;11.616;2023-07-20T05:25:42;95207.22;;;17.94;72.63
9225;BME280;4647;48.072;11.616;2023-07-20T05:28:11;95214.22;;;17.95;72.44
9225;BME280;4647;48.072;11.616;2023-07-20T05:30:42;95193.22;;;17.92;72.77
9225;BME280;4647;48.072;11.616;2023-07-20T05:33:11;95206.56;;;18.26;71.80
9225;BME280;4647;48.072;11.616;2023-07-20T05:35:39;95207.91;;;18.31;70.64
9225;BME280;4647;48.072;11.616;2023-07-20T05:38:08;95206.94;;;18.52;70.00
9225;BME280;4647;48.072;11.616;2023-07-20T05:40:37;95205.69;;;18.62;69.61
9225;BME280;4647;48.072;11.616;2023-07-20T05:43:06;95205.88;;;18.50;69.66
9225;BME280;4647;48.072;11.616;2023-07-20T05:45:35;95208.31;;;18.48;69.64
9225;BME280;4647;48.072;11.616;2023-07-20T05:48:06;95213.75;;;18.66;68.40
9225;BME280;4647;48.072;11.616;2023-07-20T05:50:36;95214.25;;;18.88;68.95
9225;BME280;4647;48.072;11.616;2023-07-20T05:53:05;95211.19;;;18.95;67.56
9225;BME280;4647;48.072;11.616;2023-07-20T05:55:33;95213.31;;;18.91;67.91
9225;BME280;4647;48.072;11.616;2023-07-20T05:58:02;95215.94;;;19.19;66.84
9225;BME280;4647;48.072;11.616;2023-07-20T06:00:30;95215.19;;;19.18;66.69
9225;BME280;4647;48.072;11.616;2023-07-20T06:02:59;95208.91;;;19.66;64.78
9225;BME280;4647;48.072;11.616;2023-07-20T06:05:30;95222.47;;;19.69;64.00
9225;BME280;4647;48.072;11.616;2023-07-20T06:07:58;95220.66;;;19.66;63.20
9225;BME280;4647;48.072;11.616;2023-07-20T06:10:27;95218.50;;;19.46;63.13
9225;BME280;4647;48.072;11.616;2023-07-20T06:12:55;95224.47;;;19.45;63.16
9225;BME280;4647;48.072;11.616;2023-07-20T06:15:25;95221.13;;;19.65;63.43
9225;BME280;4647;48.072;11.616;2023-07-20T06:17:54;95217.00;;;19.84;62.39
9225;BME280;4647;48.072;11.616;2023-07-20T06:20:24;95219.09;;;19.89;62.58
9225;BME280;4647;48.072;11.616;2023-07-20T06:22:55;95217.69;;;20.08;62.21
9225;BME280;4647;48.072;11.616;2023-07-20T06:25:23;95221.41;;;20.20;62.06
9225;BME280;4647;48.072;11.616;2023-07-20T06:27:52;95226.69;;;20.09;62.46
9225;BME280;4647;48.072;11.616;2023-07-20T06:30:20;95222.09;;;20.44;61.52
9225;BME280;4647;48.072;11.616;2023-07-20T06:32:48;95219.91;;;20.63;60.04
9225;BME280;4647;48.072;11.616;2023-07-20T06:35:17;95217.78;;;20.58;59.94
9225;BME280;4647;48.072;11.616;2023-07-20T06:37:46;95226.59;;;20.33;61.31
9225;BME280;4647;48.072;11.616;2023-07-20T06:40:17;95227.97;;;20.52;60.56
9225;BME280;4647;48.072;11.616;2023-07-20T06:42:45;95221.03;;;20.42;61.05
9225;BME280;4647;48.072;11.616;2023-07-20T06:45:14;95209.66;;;20.49;60.85
9225;BME280;4647;48.072;11.616;2023-07-20T06:47:42;95227.00;;;20.55;60.69
9225;BME280;4647;48.072;11.616;2023-07-20T06:50:11;95220.66;;;20.64;60.62
9225;BME280;4647;48.072;11.616;2023-07-20T06:52:41;95217.75;;;20.88;59.92
9225;BME280;4647;48.072;11.616;2023-07-20T06:55:09;95224.56;;;20.92;58.90
9225;BME280;4647;48.072;11.616;2023-07-20T06:57:40;95221.69;;;21.01;58.41
9225;BME280;4647;48.072;11.616;2023-07-20T07:00:10;95221.19;;;21.18;57.73
9225;BME280;4647;48.072;11.616;2023-07-20T07:02:39;95218.59;;;21.69;55.96
9225;BME280;4647;48.072;11.616;2023-07-20T07:05:07;95225.69;;;21.76;56.29
9225;BME280;4647;48.072;11.616;2023-07-20T07:07:36;95225.53;;;21.85;56.71
9225;BME280;4647;48.072;11.616;2023-07-20T07:10:06;95214.50;;;22.05;56.68
9225;BME280;4647;48.072;11.616;2023-07-20T07:12:35;95221.38;;;22.16;55.95
9225;BME280;4647;48.072;11.616;2023-07-20T07:15:07;95226.75;;;22.56;54.92
9225;BME280;4647;48.072;11.616;2023-07-20T07:17:36;95225.78;;;22.59;52.91
9225;BME280;4647;48.072;11.616;2023-07-20T07:20:06;95228.03;;;22.61;53.05
9225;BME280;4647;48.072;11.616;2023-07-20T07:22:37;95231.59;;;22.67;54.41
9225;BME280;4647;48.072;11.616;2023-07-20T07:25:10;95227.66;;;22.16;54.80
9225;BME280;4647;48.072;11.616;2023-07-20T07:27:38;95233.66;;;22.15;53.05
9225;BME280;4647;48.072;11.616;2023-07-20T07:30:11;95228.75;;;21.58;56.85
9225;BME280;4647;48.072;11.616;2023-07-20T07:32:39;95230.25;;;21.38;56.68
9225;BME280;4647;48.072;11.616;2023-07-20T07:35:08;95224.03;;;21.84;53.27
9225;BME280;4647;48.072;11.616;2023-07-20T07:37:37;95219.78;;;22.35;52.59
9225;BME280;4647;48.072;11.616;2023-07-20T07:40:07;95221.50;;;22.90;49.17
9225;BME280;4647;48.072;11.616;2023-07-20T07:42:36;95225.88;;;23.45;47.98
9225;BME280;4647;48.072;11.616;2023-07-20T07:45:05;95220.84;;;23.49;48.05
9225;BME280;4647;48.072;11.616;2023-07-20T07:47:39;95221.97;;;23.68;50.20
9225;BME280;4647;48.072;11.616;2023-07-20T07:50:09;95215.50;;;23.94;47.38
9225;BME280;4647;48.072;11.616;2023-07-20T07:52:38;95215.75;;;23.96;47.13
9225;BME280;4647;48.072;11.616;2023-07-20T07:55:07;95221.06;;;23.99;49.33
9225;BME280;4647;48.072;11.616;2023-07-20T07:57:35;95219.53;;;23.93;48.51
9225;BME280;4647;48.072;11.616;2023-07-20T08:00:05;95225.25;;;23.78;49.63
9225;BME280;4647;48.072;11.616;2023-07-20T08:02:40;95222.13;;;23.53;48.83
9225;BME280;4647;48.072;11.616;2023-07-20T08:05:08;95228.91;;;24.17;48.16
9225;BME280;4647;48.072;11.616;2023-07-20T08:07:37;95223.03;;;23.87;47.13
9225;BME280;4647;48.072;11.616;2023-07-20T08:10:07;95229.31;;;23.82;47.59
9225;BME280;4647;48.072;11.616;2023-07-20T08:12:36;95228.41;;;24.25;45.63
9225;BME280;4647;48.072;11.616;2023-07-20T08:15:06;95230.13;;;24.00;46.32
9225;BME280;4647;48.072;11.616;2023-07-20T08:17:34;95227.78;;;23.81;45.38
9225;BME280;4647;48.072;11.616;2023-07-20T08:20:07;95227.72;;;24.46;44.10
9225;BME280;4647;48.072;11.616;2023-07-20T08:22:37;95229.41;;;24.27;43.47
9225;BME280;4647;48.072;11.616;2023-07-20T08:25:06;95225.44;;;24.39;42.98
9225;BME280;4647;48.072;11.616;2023-07-20T08:27:35;95235.78;;;24.89;41.33
9225;BME280;4647;48.072;11.616;2023-07-20T08:30:05;95238.81;;;25.08;40.35
9225;BME280;4647;48.072;11.616;2023-07-20T08:32:33;95231.47;;;25.22;39.63
9225;BME280;4647;48.072;11.616;2023-07-20T08:35:06;95235.78;;;25.00;40.21
9225;BME280;4647;48.072;11.616;2023-07-20T08:37:35;95241.06;;;24.54;43.23
9225;BME280;4647;48.072;11.616;2023-07-20T08:40:05;95238.56;;;24.61;42.18
9225;BME280;4647;48.072;11.616;2023-07-20T08:42:34;95240.28;;;24.42;41.49
9225;BME280;4647;48.072;11.616;2023-07-20T08:45:06;95237.97;;;24.24;36.97
9225;BME280;4647;48.072;11.616;2023-07-20T08:47:37;95241.19;;;24.05;36.86
9225;BME280;4647;48.072;11.616;2023-07-20T08:50:09;95239.31;;;23.20;39.56
9225;BME280;4647;48.072;11.616;2023-07-20T08:52:39;95240.50;;;23.14;39.09
9225;BME280;4647;48.072;11.616;2023-07-20T08:55:09;95230.47;;;23.59;39.78
9225;BME280;4647;48.072;11.616;2023-07-20T08:57:39;95236.59;;;23.85;37.92
9225;BME280;4647;48.072;11.616;2023-07-20T09:00:11;95217.63;;;22.76;40.31
9225;BME280;4647;48.072;11.616;2023-07-20T09:02:45;95214.13;;;23.18;40.64
9225;BME280;4647;48.072;11.616;2023-07-20T09:05:16;95227.41;;;22.72;39.73
9225;BME280;4647;48.072;11.616;2023-07-20T09:07:45;95226.88;;;22.42;41.65
9225;BME280;4647;48.072;11.616;2023-07-20T09:10:14;95234.34;;;22.35;40.31
9225;BME280;4647;48.072;11.616;2023-07-20T09:12:43;95232.31;;;22.04;41.38
9225;BME280;4647;48.072;11.616;2023-07-20T09:15:13;95225.97;;;22.50;39.73
9225;BME280;4647;48.072;11.616;2023-07-20T09:17:46;95226.88;;;23.05;38.83
9225;BME280;4647;48.072;11.616;2023-07-20T09:20:18;95220.47;;;23.67;39.69
9225;BME280;4647;48.072;11.616;2023-07-20T09:22:47;95204.94;;;23.98;37.98
9225;BME280;4647;48.072;11.616;2023-07-20T09:25:16;95202.75;;;25.02;35.79
9225;BME280;4647;48.072;11.616;2023-07-20T09:27:47;95206.03;;;24.95;35.45
9225;BME280;4647;48.072;11.616;2023-07-20T09:30:16;95212.22;;;23.89;36.54
9225;BME280;4647;48.072;11.616;2023-07-20T09:32:46;95195.06;;;23.74;38.03
9225;BME280;4647;48.072;11.616;2023-07-20T09:35:20;95193.94;;;23.49;37.95
9225;BME280;4647;48.072;11.616;2023-07-20T09:37:52;95218.00;;;23.38;38.52
9225;BME280;4647;48.072;11.616;2023-07-20T09:40:21;95212.09;;;23.13;38.35
9225;BME280;4647;48.072;11.616;2023-07-20T09:42:52;95203.88;;;23.78;37.88
9225;BME280;4647;48.072;11.616;2023-07-20T09:45:28;95210.28;;;24.18;35.97
9225;BME280;4647;48.072;11.616;2023-07-20T09:48:03;95202.72;;;25.19;34.95
9225;BME280;4647;48.072;11.616;2023-07-20T09:50:39;95196.28;;;26.16;33.56
9225;BME280;4647;48.072;11.616;2023-07-20T09:53:12;95211.66;;;25.64;33.75
9225;BME280;4647;48.072;11.616;2023-07-20T09:55:41;95202.28;;;24.70;35.15
9225;BME280;4647;48.072;11.616;2023-07-20T09:58:10;95207.28;;;24.33;35.24
9225;BME280;4647;48.072;11.616;2023-07-20T10:00:40;95211.00;;;23.96;36.43
9225;BME280;4647;48.072;11.616;2023-07-20T10:03:10;95199.91;;;24.02;36.69
9225;BME280;4647;48.072;11.616;2023-07-20T10:05:46;95195.31;;;23.71;37.27
9225;BME280;4647;48.072;11.616;2023-07-20T10:08:16;95200.66;;;23.32;37.93
9225;BME280;4647;48.072;11.616;2023-07-20T10:10:47;95206.50;;;23.45;38.30
9225;BME280;4647;48.072;11.616;2023-07-20T10:13:17;95206.72;;;24.01;36.70
9225;BME280;4647;48.072;11.616;2023-07-20T10:15:49;95199.66;;;24.05;36.20
9225;BME280;4647;48.072;11.616;2023-07-20T10:18:24;95206.06;;;23.57;36.96
9225;BME280;4647;48.072;11.616;2023-07-20T10:20:59;95194.06;;;23.66;37.15
9225;BME280;4647;48.072;11.616;2023-07-20T10:23:29;95187.88;;;24.16;36.63
9225;BME280;4647;48.072;11.616;2023-07-20T10:25:59;95185.63;;;24.59;35.74
9225;BME280;4647;48.072;11.616;2023-07-20T10:28:29;95197.22;;;23.53;37.62
9225;BME280;4647;48.072;11.616;2023-07-20T10:30:57;95190.84;;;23.96;37.54
9225;BME280;4647;48.072;11.616;2023-07-20T10:33:26;95198.75;;;24.64;36.65
9225;BME280;4647;48.072;11.616;2023-07-20T10:36:01;95176.06;;;24.71;36.39
9225;BME280;4647;48.072;11.616;2023-07-20T10:38:40;95176.03;;;25.11;35.12
9225;BME280;4647;48.072;11.616;2023-07-20T10:41:19;95178.31;;;24.95;35.80
9225;BME280;4647;48.072;11.616;2023-07-20T10:43:50;95186.81;;;23.91;36.93
9225;BME280;4647;48.072;11.616;2023-07-20T10:46:43;95186.53;;;23.78;38.50
9225;BME280;4647;48.072;11.616;2023-07-20T10:49:13;95176.78;;;24.10;37.86
9225;BME280;4647;48.072;11.616;2023-07-20T10:51:47;95168.50;;;24.16;37.75
9225;BME280;4647;48.072;11.616;2023-07-20T10:54:34;95164.75;;;24.64;37.15
9225;BME280;4647;48.072;11.616;2023-07-20T10:57:24;95169.97;;;24.06;37.36
9225;BME280;4647;48.072;11.616;2023-07-20T11:00:07;95179.97;;;23.16;39.29
9225;BME280;4647;48.072;11.616;2023-07-20T11:02:43;95171.13;;;23.60;38.85
9225;BME280;4647;48.072;11.616;2023-07-20T11:05:33;95159.91;;;24.92;36.84
9225;BME280;4647;48.072;11.616;2023-07-20T11:08:09;95170.00;;;24.84;36.47
9225;BME280;4647;48.072;11.616;2023-07-20T11:10:39;95153.88;;;24.88;35.64
9225;BME280;4647;48.072;11.616;2023-07-20T11:13:21;95160.69;;;24.82;36.50
9225;BME280;4647;48.072;11.616;2023-07-20T11:16:02;95156.41;;;24.75;36.36
9225;BME280;4647;48.072;11.616;2023-07-20T11:18:34;95146.03;;;23.80;38.44
9225;BME280;4647;48.072;11.616;2023-07-20T11:21:08;95160.19;;;24.27;36.24
9225;BME280;4647;48.072;11.616;2023-07-20T11:23:43;95148.63;;;24.51;37.15
9225;BME280;4647;48.072;11.616;2023-07-20T11:26:11;95147.06;;;25.06;35.61
9225;BME280;4647;48.072;11.616;2023-07-20T11:28:41;95160.97;;;24.72;36.42
9225;BME280;4647;48.072;11.616;2023-07-20T11:31:10;95149.13;;;24.66;36.88
9225;BME280;4647;48.072;11.616;2023-07-20T11:33:42;95144.09;;;24.20;36.87
9225;BME280;4647;48.072;11.616;2023-07-20T11:36:10;95148.91;;;24.42;36.72
9225;BME280;4647;48.072;11.616;2023-07-20T11:38:45;95138.19;;;25.19;35.64
9225;BME280;4647;48.072;11.616;2023-07-20T11:41:14;95151.53;;;25.26;35.59
9225;BME280;4647;48.072;11.616;2023-07-20T11:43:43;95154.06;;;25.24;35.25
9225;BME280;4647;48.072;11.616;2023-07-20T11:46:13;95144.28;;;25.75;34.39
9225;BME280;4647;48.072;11.616;2023-07-20T11:48:42;95146.38;;;26.40;33.61
9225;BME280;4647;48.072;11.616;2023-07-20T11:51:13;95138.06;;;26.05;32.96
9225;BME280;4647;48.072;11.616;2023-07-20T11:53:47;95125.31;;;25.85;33.85
9225;BME280;4647;48.072;11.616;2023-07-20T11:56:15;95141.28;;;25.67;34.27
9225;BME280;4647;48.072;11.616;2023-07-20T11:58:44;95122.34;;;25.14;35.86
9225;BME280;4647;48.072;11.616;2023-07-20T12:01:13;95127.09;;;25.24;35.37
9225;BME280;4647;48.072;11.616;2023-07-20T12:03:43;95116.63;;;24.72;35.08
9225;BME280;4647;48.072;11.616;2023-07-20T12:06:12;95104.94;;;25.07;34.89
9225;BME280;4647;48.072;11.616;2023-07-20T12:08:42;95126.66;;;25.09;35.22
9225;BME280;4647;48.072;11.616;2023-07-20T12:11:13;95107.59;;;24.49;35.44
9225;BME280;4647;48.072;11.616;2023-07-20T12:13:43;95110.56;;;24.79;35.01
9225;BME280;4647;48.072;11.616;2023-07-20T12:16:14;95113.63;;;24.54;35.85
9225;BME280;4647;48.072;11.616;2023-07-20T12:18:43;95109.34;;;24.25;36.63
9225;BME280;4647;48.072;11.616;2023-07-20T12:21:12;95113.13;;;24.61;36.17
9225;BME280;4647;48.072;11.616;2023-07-20T12:23:41;95107.88;;;24.40;35.96
9225;BME280;4647;48.072;11.616;2023-07-20T12:26:13;95098.78;;;24.45;36.17
9225;BME280;4647;48.072;11.616;2023-07-20T12:28:42;95089.97;;;24.19;37.15
9225;BME280;4647;48.072;11.616;2023-07-20T12:31:12;95096.75;;;24.07;36.39
9225;BME280;4647;48.072;11.616;2023-07-20T12:33:41;95086.19;;;24.22;36.57
9225;BME280;4647;48.072;11.616;2023-07-20T12:36:10;95078.09;;;24.69;35.85
9225;BME280;4647;48.072;11.616;2023-07-20T12:38:38;95084.31;;;25.03;35.21
9225;BME280;4647;48.072;11.616;2023-07-20T12:41:09;95072.75;;;24.88;34.74
9225;BME280;4647;48.072;11.616;2023-07-20T12:43:40;95088.06;;;25.17;35.39
9225;BME280;4647;48.072;11.616;2023-07-20T12:46:10;95079.00;;;25.11;35.22
9225;BME280;4647;48.072;11.616;2023-07-20T12:48:40;95084.00;;;25.70;35.58
9225;BME280;4647;48.072;11.616;2023-07-20T12:51:09;95084.00;;;25.70;34.07
9225;BME280;4647;48.072;11.616;2023-07-20T12:53:38;95085.56;;;25.07;35.39
9225;BME280;4647;48.072;11.616;2023-07-20T12:56:07;95070.81;;;25.35;34.65
9225;BME280;4647;48.072;11.616;2023-07-20T12:58:35;95074.88;;;25.34;35.26
9225;BME280;4647;48.072;11.616;2023-07-20T13:01:07;95070.66;;;25.68;33.74
9225;BME280;4647;48.072;11.616;2023-07-20T13:03:35;95077.19;;;25.65;34.78
9225;BME280;4647;48.072;11.616;2023-07-20T13:06:04;95068.13;;;25.18;34.68
9225;BME280;4647;48.072;11.616;2023-07-20T13:08:33;95069.84;;;25.79;34.07
9225;BME280;4647;48.072;11.616;2023-07-20T13:11:01;95069.81;;;25.38;34.76
9225;BME280;4647;48.072;11.616;2023-07-20T13:13:30;95062.28;;;25.33;35.25
9225;BME280;4647;48.072;11.616;2023-07-20T13:15:59;95061.22;;;25.83;34.96
9225;BME280;4647;48.072;11.616;2023-07-20T13:18:30;95064.47;;;25.87;33.86
9225;BME280;4647;48.072;11.616;2023-07-20T13:20:58;95056.34;;;25.94;34.04
9225;BME280;4647;48.072;11.616;2023-07-20T13:23:26;95045.94;;;26.30;33.51
9225;BME280;4647;48.072;11.616;2023-07-20T13:25:55;95063.09;;;25.63;34.30
9225;BME280;4647;48.072;11.616;2023-07-20T13:28:23;95062.41;;;25.52;34.36
9225;BME280;4647;48.072;11.616;2023-07-20T13:30:52;95057.25;;;26.08;34.09